Decoded Metar for KTVF (THIEF RIVER in MN, USA) (IATA:TVF) | Meteo·Mobile Aviation Weather
aviador You're here:

KTVF Decoded Metar

THIEF RIVER in MN, USA
Report Time2018-09-18 12:56:00
UTC Time2018-09-18 13:13:23
Flight Rules mvfr MVFR
Wind020° at 06 kt
W.Decomp.*RWY 03: 5.8 kt HW 1.6 kt LCW
RWY 31: 2.5 kt HW 5.4 kt RCW
W.Rank020° ranks 30
Current wind is below 020° avg. (8.3)
Visibility9999 m
Phenomena:N/A
Clouds:Overcast 022 Hf
Expected CloudBase > 400 ft AGL from Temp-Dew spread
Ceiling2,200 ft
Temp07°C (ISA -6)
Dew Point06°C (93% RH)
AAT3.9°C
QNH1018 hPa
Density Alt381 ft
Elevation1,115 ft
Report Wrong Elevation
Raw Report
KTVF 181256Z AUTO 02006KT 10SM OVC022 07/06 A3006 RMK AO2 SLP187
T00670061=

Extra information for KTVF:More info

Metar Taf Metar & Taf Last 4 Metars F.Rules Stats Wind Profile Meteogram Temp Stats Airport Information Weather charts Add Link Nearby VenuesMetar ALERT Operation Metar Decoded Social comments

AIRNAV info for KTVF